createdAt,value
2018-03-22T00:02:19.359Z,28.57
2018-03-22T00:04:47.320Z,28.93
2018-03-22T00:07:15.266Z,29.93
2018-03-22T00:09:46.037Z,30.80
2018-03-22T00:12:14.009Z,29.90
2018-03-22T00:14:42.115Z,28.63
2018-03-22T00:17:10.250Z,29.03
2018-03-22T00:19:38.608Z,28.53
2018-03-22T00:22:06.818Z,29.20
2018-03-22T00:24:34.984Z,29.57
2018-03-22T00:27:02.950Z,29.83
2018-03-22T00:29:30.872Z,29.87
2018-03-22T00:31:59.554Z,31.03
2018-03-22T00:34:28.274Z,29.90
2018-03-22T00:36:56.082Z,29.63
2018-03-22T00:39:23.959Z,30.40
2018-03-22T00:41:51.877Z,30.83
2018-03-22T00:44:19.858Z,30.03
2018-03-22T00:46:47.695Z,29.67
2018-03-22T00:49:15.688Z,28.97
2018-03-22T00:51:43.638Z,32.00
2018-03-22T00:54:11.596Z,29.67
2018-03-22T00:56:39.557Z,30.00
2018-03-22T00:59:11.784Z,30.20
2018-03-22T01:01:40.823Z,33.47
2018-03-22T01:04:13.486Z,31.40
2018-03-22T01:06:44.842Z,31.00
2018-03-22T01:09:16.026Z,29.97
2018-03-22T01:14:30.363Z,31.77
2018-03-22T01:17:01.511Z,30.50
2018-03-22T01:19:30.854Z,30.80
2018-03-22T01:21:58.715Z,31.07
2018-03-22T01:24:26.693Z,30.80
2018-03-22T01:26:55.492Z,32.47
2018-03-22T01:29:26.372Z,32.20
2018-03-22T01:31:58.027Z,32.90
2018-03-22T01:37:00.515Z,30.93
2018-03-22T01:39:28.400Z,30.73
2018-03-22T01:41:56.879Z,31.17
2018-03-22T01:44:24.833Z,31.57
2018-03-22T01:46:52.802Z,31.03
2018-03-22T01:49:21.027Z,31.83
2018-03-22T01:51:49.318Z,31.80
2018-03-22T01:54:18.041Z,31.80
2018-03-22T01:56:47.984Z,30.93
2018-03-22T01:59:15.978Z,30.83
2018-03-22T02:01:47.800Z,31.47
2018-03-22T02:04:16.611Z,31.63
2018-03-22T02:06:51.349Z,29.33
2018-03-22T02:09:27.292Z,27.47
2018-03-22T02:11:57.502Z,29.27
2018-03-22T02:14:30.117Z,30.30
2018-03-22T02:16:58.519Z,27.60
2018-03-22T02:19:28.723Z,26.67
2018-03-22T02:21:59.194Z,28.30
2018-03-22T02:24:30.293Z,26.83
2018-03-22T02:27:01.074Z,27.00
2018-03-22T02:29:29.154Z,25.13
2018-03-22T02:32:00.851Z,26.47
2018-03-22T02:34:30.913Z,25.83
2018-03-22T02:37:03.348Z,40.22
2018-03-22T02:39:32.187Z,26.47
2018-03-22T02:42:00.667Z,25.40
2018-03-22T02:47:13.292Z,26.30
2018-03-22T02:49:41.741Z,25.87
2018-03-22T02:52:13.571Z,25.70
2018-03-22T02:54:45.392Z,25.07
2018-03-22T02:57:13.723Z,25.37
2018-03-22T02:59:44.529Z,24.60
2018-03-22T03:02:15.270Z,24.87
2018-03-22T03:04:43.510Z,23.43
2018-03-22T03:07:11.465Z,24.70
2018-03-22T03:09:39.444Z,25.57
2018-03-22T03:12:07.727Z,23.80
2018-03-22T03:14:35.921Z,26.17
2018-03-22T03:17:05.151Z,28.57
2018-03-22T03:19:35.798Z,29.67
2018-03-22T03:22:03.833Z,28.27
2018-03-22T03:24:32.168Z,29.13
2018-03-22T03:27:01.796Z,29.80
2018-03-22T03:29:35.820Z,28.83
2018-03-22T03:32:10.523Z,28.70
2018-03-22T03:34:45.428Z,28.53
2018-03-22T03:37:13.860Z,25.47
2018-03-22T03:39:45.897Z,26.77
2018-03-22T03:42:13.866Z,25.53
2018-03-22T03:44:43.665Z,26.50
2018-03-22T03:47:11.928Z,27.13
2018-03-22T03:49:41.063Z,26.40
2018-03-22T03:52:11.170Z,26.07
2018-03-22T03:54:41.230Z,26.50
2018-03-22T03:57:11.937Z,27.70
2018-03-22T03:59:40.696Z,27.27
2018-03-22T04:02:44.491Z,28.60
2018-03-22T04:05:18.268Z,27.53
2018-03-22T04:07:51.487Z,28.33
2018-03-22T04:10:23.586Z,29.67
2018-03-22T04:12:51.822Z,28.60
2018-03-22T04:15:27.676Z,28.83
2018-03-22T04:17:55.782Z,28.23
2018-03-22T04:20:26.013Z,28.33
2018-03-22T04:23:00.703Z,28.97
2018-03-22T04:25:32.892Z,29.87
2018-03-22T04:28:04.859Z,28.07
2018-03-22T04:33:11.592Z,39.22
2018-03-22T04:35:45.734Z,36.67
2018-03-22T04:38:17.425Z,21.47
2018-03-22T04:40:45.619Z,35.28
2018-03-22T04:43:16.323Z,23.17
2018-03-22T04:45:45.311Z,36.05
2018-03-22T04:48:13.901Z,21.37
2018-03-22T04:50:42.591Z,22.50
2018-03-22T04:53:10.574Z,35.40
2018-03-22T04:55:41.620Z,25.80
2018-03-22T04:58:18.048Z,30.30
2018-03-22T05:00:56.912Z,34.25
2018-03-22T05:03:34.236Z,24.63
2018-03-22T05:06:04.595Z,35.65
2018-03-22T05:08:34.800Z,36.05
2018-03-22T05:11:09.880Z,23.03
2018-03-22T05:13:38.827Z,37.00
2018-03-22T05:16:06.747Z,37.47
2018-03-22T05:18:35.535Z,37.70
2018-03-22T05:21:04.204Z,23.73
2018-03-22T05:23:32.237Z,23.07
2018-03-22T05:26:00.062Z,25.73
2018-03-22T05:28:29.298Z,24.10
2018-03-22T05:30:57.195Z,25.00
2018-03-22T05:33:25.128Z,40.17
2018-03-22T05:35:59.143Z,40.80
2018-03-22T05:38:27.103Z,24.53
2018-03-22T05:40:55.166Z,27.50
2018-03-22T05:43:23.213Z,24.90
2018-03-22T05:45:51.421Z,24.50
2018-03-22T05:48:19.446Z,24.00
2018-03-22T05:50:48.351Z,23.57
2018-03-22T05:53:16.444Z,24.83
2018-03-22T05:55:44.395Z,46.00
2018-03-22T05:58:12.461Z,40.60
2018-03-22T06:00:40.482Z,41.58
2018-03-22T06:03:08.578Z,39.30
2018-03-22T06:05:37.548Z,37.42
2018-03-22T06:08:05.864Z,43.45
2018-03-22T06:10:33.757Z,36.13
2018-03-22T06:13:01.867Z,38.60
2018-03-22T06:15:30.007Z,37.38
2018-03-22T06:17:58.178Z,45.45
2018-03-22T06:20:26.042Z,40.00
2018-03-22T06:22:55.345Z,37.80
2018-03-22T06:25:23.438Z,46.50
2018-03-22T06:27:52.084Z,37.08
2018-03-22T06:30:20.120Z,40.42
2018-03-22T06:32:50.170Z,40.45
2018-03-22T06:35:19.461Z,38.63
2018-03-22T06:37:47.414Z,40.38
2018-03-22T06:40:15.987Z,38.83
2018-03-22T06:42:45.862Z,39.45
2018-03-22T06:45:15.435Z,38.10
2018-03-22T06:47:43.259Z,38.78
2018-03-22T06:50:11.483Z,43.60
2018-03-22T06:52:39.329Z,36.83
2018-03-22T06:55:07.234Z,38.55
2018-03-22T06:57:35.246Z,35.92
2018-03-22T07:00:03.453Z,35.80
2018-03-22T07:02:31.613Z,37.55
2018-03-22T07:04:59.597Z,38.10
2018-03-22T07:07:27.706Z,38.08
2018-03-22T07:09:55.806Z,38.10
2018-03-22T07:12:24.409Z,38.55
2018-03-22T07:14:52.237Z,37.70
2018-03-22T07:17:20.610Z,39.10
2018-03-22T07:19:48.973Z,39.10
2018-03-22T07:22:17.118Z,39.15
2018-03-22T07:24:45.246Z,38.08
2018-03-22T07:27:14.080Z,38.78
2018-03-22T07:29:42.132Z,38.95
2018-03-22T07:32:11.286Z,41.95
2018-03-22T07:34:39.333Z,39.28
2018-03-22T07:37:08.194Z,38.80
2018-03-22T07:39:36.246Z,38.58
2018-03-22T07:42:06.244Z,39.08
2018-03-22T07:44:39.981Z,38.90
2018-03-22T07:47:08.030Z,40.50
2018-03-22T07:49:37.445Z,39.55
2018-03-22T07:52:06.159Z,39.75
2018-03-22T07:54:34.161Z,39.42
2018-03-22T07:57:04.376Z,39.30
2018-03-22T07:59:32.257Z,40.50
2018-03-22T08:02:00.209Z,41.05
2018-03-22T08:04:28.126Z,42.05
2018-03-22T08:06:56.910Z,39.90
2018-03-22T08:09:26.317Z,40.28
2018-03-22T08:11:55.072Z,39.45
2018-03-22T08:14:22.961Z,40.20
2018-03-22T08:16:52.745Z,40.70
2018-03-22T08:19:20.817Z,39.33
2018-03-22T08:21:48.900Z,40.78
2018-03-22T08:24:17.291Z,39.67
2018-03-22T08:26:46.304Z,40.30
2018-03-22T08:29:14.214Z,40.25
2018-03-22T08:31:42.594Z,39.40
2018-03-22T08:34:10.561Z,38.58
2018-03-22T08:36:39.397Z,40.35
2018-03-22T08:39:07.630Z,39.42
2018-03-22T08:41:35.519Z,37.90
2018-03-22T08:44:04.284Z,39.85
2018-03-22T08:46:32.123Z,39.00
2018-03-22T08:48:59.964Z,38.85
2018-03-22T08:51:28.495Z,39.35
2018-03-22T08:53:56.568Z,38.00
2018-03-22T08:56:24.842Z,28.80
2018-03-22T08:58:52.657Z,26.50
2018-03-22T09:01:20.796Z,28.37
2018-03-22T09:03:49.933Z,29.10
2018-03-22T09:06:17.959Z,29.13
2018-03-22T09:08:45.827Z,28.30
2018-03-22T09:11:14.494Z,26.50
2018-03-22T09:13:42.684Z,26.70
2018-03-22T09:16:10.630Z,27.43
2018-03-22T09:18:38.452Z,27.87
2018-03-22T09:21:07.815Z,27.03
2018-03-22T09:23:35.892Z,25.43
2018-03-22T09:26:03.858Z,26.13
2018-03-22T09:28:32.471Z,27.37
2018-03-22T09:31:00.292Z,40.78
2018-03-22T09:33:28.381Z,39.00
2018-03-22T09:35:56.284Z,38.78
2018-03-22T09:38:24.218Z,38.22
2018-03-22T09:40:52.927Z,37.03
2018-03-22T09:43:20.815Z,38.95
2018-03-22T09:45:49.457Z,38.13
2018-03-22T09:48:18.138Z,39.63
2018-03-22T09:50:46.162Z,38.80
2018-03-22T09:53:13.999Z,39.55
2018-03-22T09:55:42.659Z,40.28
2018-03-22T09:58:11.218Z,40.85
2018-03-22T10:00:39.365Z,39.45
2018-03-22T10:03:07.267Z,40.10
2018-03-22T10:05:35.479Z,38.55
2018-03-22T10:08:03.414Z,40.65
2018-03-22T10:10:32.611Z,38.13
2018-03-22T10:13:00.884Z,38.35
2018-03-22T10:15:28.753Z,38.20
2018-03-22T10:17:56.614Z,39.38
2018-03-22T10:20:24.470Z,39.10
2018-03-22T10:22:52.932Z,40.08
2018-03-22T10:25:21.068Z,40.25
2018-03-22T10:27:49.201Z,38.83
2018-03-22T10:30:19.425Z,39.33
2018-03-22T10:32:47.498Z,37.35
2018-03-22T10:35:16.659Z,38.67
2018-03-22T10:37:44.693Z,37.53
2018-03-22T10:40:12.804Z,38.05
2018-03-22T10:42:41.108Z,38.13
2018-03-22T10:45:09.296Z,37.28
2018-03-22T10:47:39.883Z,36.40
2018-03-22T10:50:07.695Z,38.00
2018-03-22T10:52:35.512Z,37.00
2018-03-22T10:55:03.588Z,36.13
2018-03-22T10:57:31.489Z,36.72
2018-03-22T10:59:59.263Z,37.03
2018-03-22T11:02:33.886Z,37.80
2018-03-22T11:05:02.477Z,38.83
2018-03-22T11:07:33.727Z,38.90
2018-03-22T11:10:03.426Z,38.92
2018-03-22T11:12:32.227Z,39.50
2018-03-22T11:15:00.959Z,38.80
2018-03-22T11:17:29.197Z,38.00
2018-03-22T11:19:57.163Z,38.40
2018-03-22T11:22:25.589Z,38.30
2018-03-22T11:24:53.805Z,37.83
2018-03-22T11:27:27.677Z,39.42
2018-03-22T11:29:57.872Z,38.70
2018-03-22T11:32:30.080Z,41.10
2018-03-22T11:34:59.164Z,38.33
2018-03-22T11:37:30.804Z,38.53
2018-03-22T11:39:59.968Z,37.03
2018-03-22T11:42:28.379Z,38.33
2018-03-22T11:44:57.534Z,37.10
2018-03-22T11:47:26.991Z,38.50
2018-03-22T11:49:55.230Z,37.67
2018-03-22T11:52:24.840Z,38.40
2018-03-22T11:54:59.919Z,39.30
2018-03-22T11:57:28.423Z,40.67
2018-03-22T11:59:57.761Z,38.88
2018-03-22T12:02:25.729Z,40.20
2018-03-22T12:04:54.414Z,38.95
2018-03-22T12:07:23.212Z,41.25
2018-03-22T12:09:51.163Z,38.72
2018-03-22T12:12:19.233Z,38.65
2018-03-22T12:14:47.311Z,38.60
2018-03-22T12:17:15.572Z,38.70
2018-03-22T12:19:43.529Z,35.40
2018-03-22T12:22:11.505Z,39.00
2018-03-22T12:24:39.492Z,40.28
2018-03-22T12:27:07.655Z,36.30
2018-03-22T12:29:35.577Z,39.50
2018-03-22T12:32:04.219Z,39.28
2018-03-22T12:34:32.192Z,39.85
2018-03-22T12:37:00.212Z,38.45
2018-03-22T12:39:29.318Z,38.17
2018-03-22T12:41:57.218Z,38.10
2018-03-22T12:44:25.290Z,37.92
2018-03-22T12:46:53.382Z,38.55
2018-03-22T12:49:21.472Z,39.05
2018-03-22T12:51:49.352Z,38.25
2018-03-22T12:54:18.027Z,37.70
2018-03-22T12:56:46.612Z,38.73
2018-03-22T12:59:15.247Z,37.97
2018-03-22T13:01:43.203Z,39.08
2018-03-22T13:04:10.994Z,38.22
2018-03-22T13:06:38.869Z,37.88
2018-03-22T13:09:06.662Z,37.30
2018-03-22T13:11:35.371Z,38.25
2018-03-22T13:14:03.368Z,37.13
2018-03-22T13:16:31.348Z,37.88
2018-03-22T13:18:59.141Z,38.03
2018-03-22T13:21:26.949Z,37.17
2018-03-22T13:23:54.883Z,36.47
2018-03-22T13:26:23.429Z,40.95
2018-03-22T13:28:51.365Z,37.33
2018-03-22T13:31:19.191Z,37.63
2018-03-22T13:33:47.837Z,36.95
2018-03-22T13:36:16.637Z,39.20
2018-03-22T13:38:44.482Z,38.42
2018-03-22T13:41:12.267Z,38.10
2018-03-22T13:43:40.061Z,39.45
2018-03-22T13:46:08.754Z,39.10
2018-03-22T13:48:37.404Z,38.25
2018-03-22T13:51:05.516Z,37.33
2018-03-22T13:53:34.188Z,39.15
2018-03-22T13:56:02.759Z,38.55
2018-03-22T13:58:30.635Z,39.20
2018-03-22T14:00:59.535Z,39.13
2018-03-22T14:03:28.146Z,39.05
2018-03-22T14:05:56.175Z,39.35
2018-03-22T14:08:24.860Z,40.03
2018-03-22T14:10:54.996Z,40.17
2018-03-22T14:13:22.867Z,40.40
2018-03-22T14:15:50.808Z,41.10
2018-03-22T14:18:18.852Z,48.97
2018-03-22T14:20:46.994Z,39.95
2018-03-22T14:23:14.909Z,40.03
2018-03-22T14:25:43.115Z,39.55
2018-03-22T14:28:11.491Z,41.42
2018-03-22T14:30:40.293Z,40.75
2018-03-22T14:33:08.102Z,40.53
2018-03-22T14:35:37.094Z,40.97
2018-03-22T14:38:05.146Z,40.83
2018-03-22T14:40:32.972Z,40.45
2018-03-22T14:43:01.565Z,39.80
2018-03-22T14:45:29.531Z,40.83
2018-03-22T14:47:57.548Z,40.35
2018-03-22T14:50:25.419Z,39.78
2018-03-22T14:52:53.432Z,39.20
2018-03-22T14:55:21.391Z,39.85
2018-03-22T14:57:50.808Z,41.28
2018-03-22T15:00:18.789Z,41.95
2018-03-22T15:02:48.331Z,40.95
2018-03-22T15:05:19.510Z,41.83
2018-03-22T15:07:48.962Z,42.45
2018-03-22T15:10:16.970Z,44.38
2018-03-22T15:12:46.157Z,43.60
2018-03-22T15:15:15.137Z,44.08
2018-03-22T15:17:43.701Z,44.00
2018-03-22T15:20:11.823Z,44.60
2018-03-22T15:22:43.018Z,46.85
2018-03-22T15:25:12.479Z,47.10
2018-03-22T15:27:41.082Z,49.80
2018-03-22T15:30:08.893Z,45.20
2018-03-22T15:32:38.322Z,44.40
2018-03-22T15:35:07.305Z,43.70
2018-03-22T15:37:38.241Z,44.80
2018-03-22T15:40:07.907Z,46.47
2018-03-22T15:42:35.907Z,43.40
2018-03-22T15:45:10.243Z,45.03
2018-03-22T15:47:45.415Z,46.15
2018-03-22T15:50:13.877Z,44.80
2018-03-22T15:52:53.220Z,42.22
2018-03-22T15:55:28.114Z,39.60
2018-03-22T15:57:56.061Z,40.25
2018-03-22T16:00:24.098Z,41.22
2018-03-22T16:02:57.558Z,39.55
2018-03-22T16:05:32.060Z,40.50
2018-03-22T16:08:03.735Z,39.47
2018-03-22T16:10:33.659Z,39.63
2018-03-22T16:13:05.343Z,39.55
2018-03-22T16:15:33.195Z,39.50
2018-03-22T16:18:01.908Z,38.40
2018-03-22T16:20:29.728Z,41.03
2018-03-22T16:23:01.379Z,40.45
2018-03-22T16:25:30.153Z,39.30
2018-03-22T16:27:59.133Z,41.22
2018-03-22T16:30:30.232Z,42.03
2018-03-22T16:32:58.189Z,41.55
2018-03-22T16:35:27.077Z,40.97
2018-03-22T16:37:56.300Z,41.42
2018-03-22T16:40:28.092Z,42.17
2018-03-22T16:42:55.944Z,42.15
2018-03-22T16:45:24.836Z,42.90
2018-03-22T16:47:53.075Z,42.13
2018-03-22T16:50:22.134Z,43.87
2018-03-22T16:52:52.093Z,42.78
2018-03-22T16:55:21.883Z,43.55
2018-03-22T16:57:51.239Z,42.50
2018-03-22T17:00:19.210Z,43.75
2018-03-22T17:02:47.008Z,43.28
2018-03-22T17:05:15.926Z,44.53
2018-03-22T17:07:44.087Z,45.25
2018-03-22T17:10:12.171Z,43.90
2018-03-22T17:12:40.283Z,45.25
2018-03-22T17:15:08.502Z,44.45
2018-03-22T17:17:36.569Z,46.55
2018-03-22T17:20:04.559Z,44.83
2018-03-22T17:22:32.523Z,44.40
2018-03-22T17:25:00.487Z,45.05
2018-03-22T17:27:28.419Z,46.25
2018-03-22T17:29:57.250Z,44.95
2018-03-22T17:32:25.156Z,45.03
2018-03-22T17:34:55.237Z,47.28
2018-03-22T17:37:23.119Z,46.95
2018-03-22T17:39:50.968Z,47.13
2018-03-22T17:42:18.879Z,51.45
2018-03-22T17:44:46.733Z,48.80
2018-03-22T17:47:14.775Z,48.42
2018-03-22T17:49:42.783Z,47.05
2018-03-22T17:52:10.638Z,48.40
2018-03-22T17:54:38.471Z,46.63
2018-03-22T17:57:07.261Z,50.28
2018-03-22T17:59:35.334Z,46.33
2018-03-22T18:02:03.378Z,47.97
2018-03-22T18:04:31.172Z,47.00
2018-03-22T18:06:58.943Z,49.42
2018-03-22T18:09:26.767Z,47.67
2018-03-22T18:11:54.687Z,48.45
2018-03-22T18:14:22.519Z,48.38
2018-03-22T18:16:50.388Z,47.70
2018-03-22T18:19:18.191Z,46.28
2018-03-22T18:21:46.047Z,46.90
2018-03-22T18:24:13.897Z,46.28
2018-03-22T18:26:42.546Z,46.33
2018-03-22T18:29:10.499Z,47.15
2018-03-22T18:31:39.127Z,45.95
2018-03-22T18:34:06.946Z,44.78
2018-03-22T18:36:35.573Z,42.62
2018-03-22T18:39:03.498Z,45.12
2018-03-22T18:41:32.111Z,45.08
2018-03-22T18:43:59.989Z,43.35
2018-03-22T18:46:27.994Z,45.72
2018-03-22T18:48:58.420Z,44.90
2018-03-22T18:51:26.476Z,46.03
2018-03-22T18:53:54.438Z,42.55
2018-03-22T18:56:22.206Z,43.85
2018-03-22T18:58:50.024Z,44.15
2018-03-22T19:01:18.320Z,43.72
2018-03-22T19:03:46.182Z,43.58
2018-03-22T19:06:15.315Z,44.67
2018-03-22T19:08:43.284Z,45.47
2018-03-22T19:11:11.150Z,45.00
2018-03-22T19:13:39.051Z,44.30
2018-03-22T19:16:07.640Z,48.05
2018-03-22T19:18:35.627Z,48.90
2018-03-22T19:21:03.463Z,45.90
2018-03-22T19:23:32.095Z,48.17
2018-03-22T19:25:59.959Z,45.58
2018-03-22T19:28:27.762Z,44.88
2018-03-22T19:30:56.330Z,45.38
2018-03-22T19:33:24.911Z,47.53
2018-03-22T19:35:54.415Z,45.90
2018-03-22T19:38:22.295Z,47.97
2018-03-22T19:40:50.089Z,47.30
2018-03-22T19:43:18.645Z,46.53
2018-03-22T19:45:46.529Z,47.30
2018-03-22T19:48:15.071Z,46.67
2018-03-22T19:50:42.944Z,46.50
2018-03-22T19:53:10.773Z,46.20
2018-03-22T19:55:38.595Z,46.35
2018-03-22T19:58:07.171Z,44.67
2018-03-22T20:00:35.001Z,46.55
2018-03-22T20:03:02.855Z,46.00
2018-03-22T20:05:31.005Z,47.40
2018-03-22T20:07:58.941Z,48.17
2018-03-22T20:10:26.760Z,47.35
2018-03-22T20:12:54.520Z,47.65
2018-03-22T20:15:22.443Z,47.58
2018-03-22T20:17:51.099Z,48.85
2018-03-22T20:20:19.000Z,46.63
2018-03-22T20:22:47.654Z,47.40
2018-03-22T20:25:15.518Z,47.97
2018-03-22T20:27:43.332Z,46.92
2018-03-22T20:30:11.257Z,44.53
2018-03-22T20:32:39.048Z,46.42
2018-03-22T20:35:07.697Z,46.50
2018-03-22T20:37:35.778Z,47.75
2018-03-22T20:40:03.683Z,48.35
2018-03-22T20:42:32.542Z,47.25
2018-03-22T20:45:00.404Z,46.40
2018-03-22T20:47:28.212Z,46.35
2018-03-22T20:49:56.353Z,45.42
2018-03-22T20:52:24.182Z,46.45
2018-03-22T20:54:51.947Z,47.00
2018-03-22T20:57:19.729Z,45.78
2018-03-22T20:59:47.531Z,46.95
2018-03-22T21:02:16.420Z,48.60
2018-03-22T21:04:45.007Z,46.40
2018-03-22T21:07:13.614Z,45.83
2018-03-22T21:09:41.442Z,46.28
2018-03-22T21:12:09.992Z,46.22
2018-03-22T21:14:37.838Z,46.37
2018-03-22T21:17:05.627Z,46.80
2018-03-22T21:19:33.388Z,46.58
2018-03-22T21:22:01.255Z,45.83
2018-03-22T21:24:29.090Z,45.78
2018-03-22T21:26:56.884Z,44.42
2018-03-22T21:29:24.675Z,42.45
2018-03-22T21:31:53.238Z,42.50
2018-03-22T21:34:21.023Z,43.72
2018-03-22T21:36:49.586Z,43.72
2018-03-22T21:39:17.420Z,43.03
2018-03-22T21:44:44.036Z,43.22
2018-03-22T21:47:24.435Z,46.63
2018-03-22T21:49:52.277Z,45.15
2018-03-22T21:52:32.169Z,45.33
2018-03-22T21:55:00.013Z,43.72
2018-03-22T21:57:27.851Z,43.97
2018-03-22T21:59:55.718Z,43.80
2018-03-22T22:02:23.635Z,46.37
2018-03-22T22:04:51.441Z,45.42
2018-03-22T22:07:20.127Z,42.45
2018-03-22T22:09:48.027Z,46.95
2018-03-22T22:12:15.843Z,43.17
2018-03-22T22:14:44.500Z,43.20
2018-03-22T22:17:12.674Z,42.22
2018-03-22T22:19:40.500Z,44.25
2018-03-22T22:22:08.322Z,41.92
2018-03-22T22:24:36.389Z,42.45
2018-03-22T22:27:04.344Z,39.88
2018-03-22T22:29:32.260Z,40.12
2018-03-22T22:32:00.166Z,39.03
2018-03-22T22:34:28.151Z,38.95
2018-03-22T22:36:55.938Z,39.25
2018-03-22T22:41:58.565Z,37.88
2018-03-22T22:44:26.777Z,38.95
2018-03-22T22:46:54.750Z,38.38
2018-03-22T22:49:22.725Z,38.75
2018-03-22T22:51:50.792Z,38.13
2018-03-22T22:54:18.654Z,38.72
2018-03-22T22:56:46.535Z,37.33
2018-03-22T22:59:14.446Z,38.25
2018-03-22T23:01:42.564Z,38.65
2018-03-22T23:04:10.402Z,39.00
2018-03-22T23:06:38.283Z,39.95
2018-03-22T23:09:06.159Z,39.65
2018-03-22T23:11:34.007Z,40.60
2018-03-22T23:14:02.041Z,39.75
2018-03-22T23:16:29.835Z,40.03
2018-03-22T23:18:57.730Z,40.92
2018-03-22T23:21:25.622Z,40.53
2018-03-22T23:23:54.375Z,40.47
2018-03-22T23:26:22.239Z,40.47
2018-03-22T23:28:50.334Z,40.95
2018-03-22T23:31:18.314Z,42.05
2018-03-22T23:33:48.618Z,53.75
2018-03-22T23:36:17.319Z,41.72
2018-03-22T23:38:45.990Z,40.95
2018-03-22T23:41:14.874Z,41.47
2018-03-22T23:43:42.771Z,42.15
2018-03-22T23:46:11.656Z,41.47
2018-03-22T23:48:40.438Z,41.78
2018-03-22T23:51:09.478Z,41.80
2018-03-22T23:53:39.520Z,44.08
2018-03-22T23:56:07.383Z,42.25
2018-03-22T23:58:35.584Z,42.65
